KMCF/MCF METAR and TAF weather

Enter ICAO airport designator
Station Type Date Time Source
KMCF METAR 2020/01/27 12:56 UTC NOAA

KMCF 271256Z AUTO 15003KT 10SM OVC070 14/08 A2996 RMK AO2 SLP149 T01410081 FZRANO $


Station Type Date Time Source
KMCF Decoded METAR 2020/01/27 12:56 UTC NOAA

Macdill Air Force Base, Fl., FL, United States (KMCF) 27-51N 082-30W 4M
Jan 27, 2020 - 07:56 AM EST / 2020.01.27 1256 UTC
Wind: from the SSE (150 degrees) at 3 MPH (3 KT):0
Visibility: 10 mile(s):0
Sky conditions: overcast
Temperature: 57.4 F (14.1 C)
Dew Point: 46.6 F (8.1 C)
Relative Humidity: 67%
Pressure (altimeter): 29.96 in. Hg (1014 hPa)
ob: KMCF 271256Z AUTO 15003KT 10SM OVC070 14/08 A2996 RMK AO2 SLP149 T01410081 FZRANO
cycle: 13

Station Type Date Time Source
KMCF TAF 2020/01/27 09:56 UTC NOAA

TAF KMCF 270900Z 2709/2815 VRB06KT 9999 VCSH FEW025 510043 510802 QNH3000INS
BECMG 2714/2715 VRB06KT 9999 NSW FEW018 510412 QNH2990INS
BECMG 2718/2719 VRB06KT 9999 VCSH FEW030 510412 QNH3000INS
BECMG 2719/2720 VRB06KT 9999 -SHRA FEW025 QNH2997INS
BECMG 2723/2800 VRB06KT 9999 NSW FEW015 SCT030 SCT120 QNH2993INS TX17/2720Z TN10/2711Z

Example: see airport list